Pagrindinis puslapis
METAR-TAF:

METAR-TAF

Oro uostai :

San Luisas, Maranjanas, Brazilija

platuma: 02-36S, ilguma: 044-14W, Aukštis: 53 m

Dabartinis oras

Ataskaita buvo paskelbta 21 minutes, ne 05:00 UTC
Vėjas 3 kt iš Rytų
Temperatūra 26°C
Drėgmė 94%
Slėgis 1011 hPa
Matomumas 10 km arba daugiau
nėra debesų žemiau 1500 m ir nėra kamuolinių lietaus debesų

METAR: SBSL 290500Z 10003KT CAVOK 26/25 Q1011

Laikas: 02:21 (05:21 UTC)

Prognozė

Ataskaita buvo paskelbta 8 valandos ir 21 minutes, ne 21:00 UTC
Prognozė galioja nuo 29 metu 00 UTC su 29 metu 24 UTC
Vėjas 6 kt iš Rytų/Šiaurės Rytų
Matomumas 10 km arba daugiau
Išsisklaidę debesys ne aukštis 2000 ft
Tapsmas
nuo 29 metu 12 UTC su 29 metu 14 UTC
Išsisklaidę debesys ne aukštis 2000 ft
Mažai debesys ne aukštis 3000 ft, aukštai iškilę kamuoliniai debesys.
Tikimybė 40%
nuo 29 metu 16 UTC su 29 metu 20 UTC
Matomumas: 8000 m
lietus

TAF: SBSL 282100Z 2900/2924 06006KT 9999 SCT020 TN25/2908Z TX31/2917Z BECMG 2912/2914 SCT020 FEW030TCU PROB40 2916/2920 8000 SHRA RMK PDJ

Orai ataskaitas ir orų prognozės (METAR, TAF).

turimą stotys yra geltonos ir raudonos taškus žemėlapyje.

Perkelti pele per norėdami pamatyti stoties vardą.

Tada spustelėkite, norėdami matyti oro stebėjimo ir prognozės.

Norėdami pakeisti žemėlapį: spustelėkite ant žalios mygtukų su juodo kryžiaus žemyn,; žalią mygtuką su brūkšneliu, jei norite nutolinti; arba žalių rodyklių gretimoms žemėlapius.


METAR-TAF: